sensor_id;sensor_type;location;lat;lon;timestamp;pressure;altitude;pressure_sealevel;temperature;humidity
63306;BME280;50735;52.060;1.248;2023-04-23T00:01:17;100100.37;;;9.41;55.74
63306;BME280;50735;52.060;1.248;2023-04-23T00:03:49;100102.54;;;9.35;55.01
63306;BME280;50735;52.060;1.248;2023-04-23T00:06:22;100099.00;;;9.18;56.06
63306;BME280;50735;52.060;1.248;2023-04-23T00:08:56;100090.45;;;9.18;55.76
63306;BME280;50735;52.060;1.248;2023-04-23T00:11:31;100089.29;;;9.42;56.21
63306;BME280;50735;52.060;1.248;2023-04-23T00:14:03;100085.89;;;9.16;56.37
63306;BME280;50735;52.060;1.248;2023-04-23T00:16:36;100081.28;;;9.41;56.61
63306;BME280;50735;52.060;1.248;2023-04-23T00:19:08;100078.96;;;9.31;56.19
63306;BME280;50735;52.060;1.248;2023-04-23T00:21:39;100076.32;;;9.34;56.73
63306;BME280;50735;52.060;1.248;2023-04-23T00:24:12;100072.79;;;9.34;57.56
63306;BME280;50735;52.060;1.248;2023-04-23T00:26:44;100073.70;;;9.57;56.95
63306;BME280;50735;52.060;1.248;2023-04-23T00:29:16;100071.39;;;9.00;57.75
63306;BME280;50735;52.060;1.248;2023-04-23T00:31:47;100064.78;;;9.25;56.97
63306;BME280;50735;52.060;1.248;2023-04-23T00:34:19;100064.36;;;9.18;58.69
63306;BME280;50735;52.060;1.248;2023-04-23T00:36:51;100058.76;;;9.51;58.74
63306;BME280;50735;52.060;1.248;2023-04-23T00:39:23;100053.13;;;9.22;59.20
63306;BME280;50735;52.060;1.248;2023-04-23T00:41:54;100047.34;;;9.27;59.30
63306;BME280;50735;52.060;1.248;2023-04-23T00:44:27;100047.50;;;9.21;59.01
63306;BME280;50735;52.060;1.248;2023-04-23T00:46:59;100049.99;;;9.34;58.74
63306;BME280;50735;52.060;1.248;2023-04-23T00:49:32;100040.88;;;9.44;58.55
63306;BME280;50735;52.060;1.248;2023-04-23T00:52:03;100038.70;;;9.47;58.76
63306;BME280;50735;52.060;1.248;2023-04-23T00:54:35;100035.08;;;9.59;59.01
63306;BME280;50735;52.060;1.248;2023-04-23T00:57:07;100032.03;;;9.65;59.33
63306;BME280;50735;52.060;1.248;2023-04-23T00:59:39;100026.18;;;9.47;59.51
63306;BME280;50735;52.060;1.248;2023-04-23T01:02:11;100027.15;;;9.44;59.61
63306;BME280;50735;52.060;1.248;2023-04-23T01:04:44;100022.94;;;9.19;59.96
63306;BME280;50735;52.060;1.248;2023-04-23T01:07:16;100020.81;;;9.37;60.39
63306;BME280;50735;52.060;1.248;2023-04-23T01:09:49;100014.01;;;9.17;61.33
63306;BME280;50735;52.060;1.248;2023-04-23T01:12:22;100017.61;;;9.04;60.98
63306;BME280;50735;52.060;1.248;2023-04-23T01:14:53;100016.38;;;8.95;61.08
63306;BME280;50735;52.060;1.248;2023-04-23T01:17:26;100016.74;;;8.85;61.27
63306;BME280;50735;52.060;1.248;2023-04-23T01:19:59;100023.51;;;8.93;61.07
63306;BME280;50735;52.060;1.248;2023-04-23T01:22:32;100019.72;;;8.77;61.70
63306;BME280;50735;52.060;1.248;2023-04-23T01:25:04;100024.26;;;8.37;62.66
63306;BME280;50735;52.060;1.248;2023-04-23T01:27:37;100021.09;;;8.46;62.89
63306;BME280;50735;52.060;1.248;2023-04-23T01:30:10;100020.58;;;8.53;62.59
63306;BME280;50735;52.060;1.248;2023-04-23T01:32:43;100015.47;;;8.47;63.26
63306;BME280;50735;52.060;1.248;2023-04-23T01:35:16;100011.28;;;8.53;63.42
63306;BME280;50735;52.060;1.248;2023-04-23T01:37:48;100010.53;;;8.83;62.79
63306;BME280;50735;52.060;1.248;2023-04-23T01:40:21;100011.72;;;8.78;62.42
63306;BME280;50735;52.060;1.248;2023-04-23T01:42:53;100009.33;;;9.00;61.96
63306;BME280;50735;52.060;1.248;2023-04-23T01:45:25;100010.12;;;9.00;62.25
63306;BME280;50735;52.060;1.248;2023-04-23T01:47:57;100008.63;;;9.11;62.09
63306;BME280;50735;52.060;1.248;2023-04-23T01:50:30;100007.37;;;9.16;61.58
63306;BME280;50735;52.060;1.248;2023-04-23T01:53:02;100008.57;;;8.96;62.62
63306;BME280;50735;52.060;1.248;2023-04-23T01:55:37;100003.13;;;8.98;62.06
63306;BME280;50735;52.060;1.248;2023-04-23T01:58:09;100002.54;;;8.73;62.35
63306;BME280;50735;52.060;1.248;2023-04-23T02:00:41;99997.72;;;8.46;63.23
63306;BME280;50735;52.060;1.248;2023-04-23T02:03:12;99993.02;;;8.85;62.54
63306;BME280;50735;52.060;1.248;2023-04-23T02:05:45;99992.84;;;8.57;63.01
63306;BME280;50735;52.060;1.248;2023-04-23T02:08:16;99990.18;;;8.90;62.60
63306;BME280;50735;52.060;1.248;2023-04-23T02:10:48;99984.60;;;9.09;62.28
63306;BME280;50735;52.060;1.248;2023-04-23T02:13:20;99982.00;;;8.51;63.28
63306;BME280;50735;52.060;1.248;2023-04-23T02:15:52;99979.69;;;8.70;62.84
63306;BME280;50735;52.060;1.248;2023-04-23T02:18:23;99977.27;;;8.92;62.81
63306;BME280;50735;52.060;1.248;2023-04-23T02:20:55;99971.37;;;9.09;62.30
63306;BME280;50735;52.060;1.248;2023-04-23T02:23:27;99969.77;;;9.23;62.03
63306;BME280;50735;52.060;1.248;2023-04-23T02:25:59;99966.52;;;9.28;62.02
63306;BME280;50735;52.060;1.248;2023-04-23T02:28:31;99964.00;;;9.08;61.61
63306;BME280;50735;52.060;1.248;2023-04-23T02:31:03;99962.43;;;9.42;61.19
63306;BME280;50735;52.060;1.248;2023-04-23T02:33:35;99956.21;;;9.47;61.66
63306;BME280;50735;52.060;1.248;2023-04-23T02:36:07;99956.30;;;9.40;61.43
63306;BME280;50735;52.060;1.248;2023-04-23T02:38:40;99953.70;;;9.36;61.66
63306;BME280;50735;52.060;1.248;2023-04-23T02:41:11;99955.98;;;9.18;62.35
63306;BME280;50735;52.060;1.248;2023-04-23T02:43:43;99953.06;;;9.29;62.42
63306;BME280;50735;52.060;1.248;2023-04-23T02:46:15;99954.75;;;9.32;62.38
63306;BME280;50735;52.060;1.248;2023-04-23T02:48:47;99948.41;;;8.68;63.03
63306;BME280;50735;52.060;1.248;2023-04-23T02:51:19;99946.35;;;8.94;62.60
63306;BME280;50735;52.060;1.248;2023-04-23T02:53:51;99945.93;;;8.86;62.86
63306;BME280;50735;52.060;1.248;2023-04-23T02:56:22;99948.41;;;9.20;62.44
63306;BME280;50735;52.060;1.248;2023-04-23T02:58:54;99948.26;;;9.20;61.96
63306;BME280;50735;52.060;1.248;2023-04-23T03:01:25;99942.51;;;9.13;61.43
63306;BME280;50735;52.060;1.248;2023-04-23T03:03:58;99937.34;;;9.24;61.97
63306;BME280;50735;52.060;1.248;2023-04-23T03:06:30;99939.10;;;9.02;61.98
63306;BME280;50735;52.060;1.248;2023-04-23T03:09:02;99936.22;;;8.86;61.85
63306;BME280;50735;52.060;1.248;2023-04-23T03:11:35;99933.37;;;9.17;61.73
63306;BME280;50735;52.060;1.248;2023-04-23T03:14:07;99926.93;;;9.05;62.00
63306;BME280;50735;52.060;1.248;2023-04-23T03:16:38;99930.70;;;8.90;62.46
63306;BME280;50735;52.060;1.248;2023-04-23T03:19:10;99932.77;;;8.94;62.12
63306;BME280;50735;52.060;1.248;2023-04-23T03:21:42;99935.74;;;8.85;62.46
63306;BME280;50735;52.060;1.248;2023-04-23T03:24:15;99929.83;;;9.01;62.88
63306;BME280;50735;52.060;1.248;2023-04-23T03:26:47;99926.36;;;8.96;62.41
63306;BME280;50735;52.060;1.248;2023-04-23T03:29:19;99929.10;;;8.97;62.29
63306;BME280;50735;52.060;1.248;2023-04-23T03:31:51;99925.29;;;8.69;62.54
63306;BME280;50735;52.060;1.248;2023-04-23T03:34:23;99921.75;;;8.71;62.91
63306;BME280;50735;52.060;1.248;2023-04-23T03:36:54;99919.70;;;8.43;63.00
63306;BME280;50735;52.060;1.248;2023-04-23T03:39:26;99924.93;;;8.64;62.86
63306;BME280;50735;52.060;1.248;2023-04-23T03:41:58;99922.59;;;8.83;62.25
63306;BME280;50735;52.060;1.248;2023-04-23T03:44:30;99925.49;;;8.95;62.55
63306;BME280;50735;52.060;1.248;2023-04-23T03:47:02;99919.23;;;8.83;63.04
63306;BME280;50735;52.060;1.248;2023-04-23T03:49:34;99920.88;;;8.89;62.81
63306;BME280;50735;52.060;1.248;2023-04-23T03:52:05;99914.90;;;8.62;62.65
63306;BME280;50735;52.060;1.248;2023-04-23T03:54:37;99917.64;;;9.02;62.77
63306;BME280;50735;52.060;1.248;2023-04-23T03:57:09;99914.41;;;8.71;63.29
63306;BME280;50735;52.060;1.248;2023-04-23T03:59:41;99914.21;;;8.81;63.18
63306;BME280;50735;52.060;1.248;2023-04-23T04:02:12;99916.98;;;8.78;63.34
63306;BME280;50735;52.060;1.248;2023-04-23T04:04:44;99916.12;;;8.77;62.70
63306;BME280;50735;52.060;1.248;2023-04-23T04:07:16;99913.56;;;8.96;62.68
63306;BME280;50735;52.060;1.248;2023-04-23T04:09:48;99912.85;;;8.94;62.89
63306;BME280;50735;52.060;1.248;2023-04-23T04:12:20;99912.02;;;8.76;63.33
63306;BME280;50735;52.060;1.248;2023-04-23T04:14:51;99909.85;;;8.71;62.96
63306;BME280;50735;52.060;1.248;2023-04-23T04:17:23;99910.20;;;8.89;62.81
63306;BME280;50735;52.060;1.248;2023-04-23T04:19:55;99909.74;;;8.70;62.79
63306;BME280;50735;52.060;1.248;2023-04-23T04:22:28;99914.93;;;8.78;63.00
63306;BME280;50735;52.060;1.248;2023-04-23T04:25:00;99911.31;;;8.87;63.35
63306;BME280;50735;52.060;1.248;2023-04-23T04:27:32;99908.73;;;8.98;62.73
63306;BME280;50735;52.060;1.248;2023-04-23T04:30:05;99914.66;;;8.91;62.89
63306;BME280;50735;52.060;1.248;2023-04-23T04:32:36;99904.40;;;8.88;63.08
63306;BME280;50735;52.060;1.248;2023-04-23T04:35:09;99901.22;;;8.82;63.12
63306;BME280;50735;52.060;1.248;2023-04-23T04:37:41;99901.57;;;8.82;63.31
63306;BME280;50735;52.060;1.248;2023-04-23T04:40:13;99896.13;;;8.90;63.05
63306;BME280;50735;52.060;1.248;2023-04-23T04:42:45;99895.01;;;8.70;63.35
63306;BME280;50735;52.060;1.248;2023-04-23T04:45:17;99892.49;;;9.15;62.33
63306;BME280;50735;52.060;1.248;2023-04-23T04:47:48;99891.50;;;9.16;62.43
63306;BME280;50735;52.060;1.248;2023-04-23T04:50:20;99891.70;;;9.04;62.82
63306;BME280;50735;52.060;1.248;2023-04-23T04:52:52;99893.50;;;9.02;62.84
63306;BME280;50735;52.060;1.248;2023-04-23T04:55:24;99890.02;;;8.86;62.50
63306;BME280;50735;52.060;1.248;2023-04-23T04:57:56;99893.54;;;8.88;62.93
63306;BME280;50735;52.060;1.248;2023-04-23T05:00:28;99893.30;;;9.23;62.54
63306;BME280;50735;52.060;1.248;2023-04-23T05:03:01;99890.95;;;9.18;62.34
63306;BME280;50735;52.060;1.248;2023-04-23T05:05:33;99892.33;;;8.90;62.41
63306;BME280;50735;52.060;1.248;2023-04-23T05:08:05;99891.76;;;9.01;62.69
63306;BME280;50735;52.060;1.248;2023-04-23T05:10:37;99893.29;;;8.90;63.07
63306;BME280;50735;52.060;1.248;2023-04-23T05:13:09;99896.55;;;8.80;62.73
63306;BME280;50735;52.060;1.248;2023-04-23T05:15:41;99895.67;;;8.90;62.87
63306;BME280;50735;52.060;1.248;2023-04-23T05:18:12;99906.35;;;8.71;63.08
63306;BME280;50735;52.060;1.248;2023-04-23T05:20:44;99897.78;;;9.27;62.57
63306;BME280;50735;52.060;1.248;2023-04-23T05:23:16;99900.25;;;9.06;62.52
63306;BME280;50735;52.060;1.248;2023-04-23T05:25:48;99900.84;;;9.07;62.48
63306;BME280;50735;52.060;1.248;2023-04-23T05:28:20;99898.32;;;8.79;62.94
63306;BME280;50735;52.060;1.248;2023-04-23T05:30:51;99903.54;;;9.23;62.63
63306;BME280;50735;52.060;1.248;2023-04-23T05:33:24;99899.38;;;9.39;62.66
63306;BME280;50735;52.060;1.248;2023-04-23T05:35:56;99903.53;;;8.69;63.60
63306;BME280;50735;52.060;1.248;2023-04-23T05:38:28;99906.44;;;8.94;63.66
63306;BME280;50735;52.060;1.248;2023-04-23T05:41:00;99907.83;;;9.02;62.91
63306;BME280;50735;52.060;1.248;2023-04-23T05:43:32;99891.18;;;9.24;62.87
63306;BME280;50735;52.060;1.248;2023-04-23T05:46:04;99892.40;;;9.21;62.91
63306;BME280;50735;52.060;1.248;2023-04-23T05:48:35;99895.68;;;9.19;62.83
63306;BME280;50735;52.060;1.248;2023-04-23T05:51:07;99891.89;;;9.13;62.11
63306;BME280;50735;52.060;1.248;2023-04-23T05:53:39;99890.20;;;8.95;62.57
63306;BME280;50735;52.060;1.248;2023-04-23T05:56:11;99888.17;;;9.07;62.68
63306;BME280;50735;52.060;1.248;2023-04-23T05:58:43;99888.25;;;8.96;62.65
63306;BME280;50735;52.060;1.248;2023-04-23T06:01:15;99891.35;;;9.15;62.98
63306;BME280;50735;52.060;1.248;2023-04-23T06:03:47;99889.43;;;9.31;62.83
63306;BME280;50735;52.060;1.248;2023-04-23T06:06:18;99889.18;;;9.22;62.15
63306;BME280;50735;52.060;1.248;2023-04-23T06:08:50;99890.45;;;9.12;62.54
63306;BME280;50735;52.060;1.248;2023-04-23T06:11:22;99887.33;;;9.62;62.25
63306;BME280;50735;52.060;1.248;2023-04-23T06:13:54;99890.16;;;9.71;62.12
63306;BME280;50735;52.060;1.248;2023-04-23T06:16:26;99888.40;;;9.18;62.59
63306;BME280;50735;52.060;1.248;2023-04-23T06:18:57;99883.63;;;9.75;62.13
63306;BME280;50735;52.060;1.248;2023-04-23T06:21:29;99883.20;;;9.52;62.29
63306;BME280;50735;52.060;1.248;2023-04-23T06:24:01;99876.24;;;9.43;61.80
63306;BME280;50735;52.060;1.248;2023-04-23T06:26:33;99877.52;;;9.40;61.45
63306;BME280;50735;52.060;1.248;2023-04-23T06:29:05;99870.97;;;9.65;60.98
63306;BME280;50735;52.060;1.248;2023-04-23T06:31:36;99869.34;;;9.66;60.77
63306;BME280;50735;52.060;1.248;2023-04-23T06:34:08;99864.85;;;9.88;60.22
63306;BME280;50735;52.060;1.248;2023-04-23T06:36:40;99868.73;;;9.81;59.80
63306;BME280;50735;52.060;1.248;2023-04-23T06:39:12;99868.42;;;9.56;60.28
63306;BME280;50735;52.060;1.248;2023-04-23T06:41:43;99866.04;;;9.44;59.83
63306;BME280;50735;52.060;1.248;2023-04-23T06:44:15;99855.42;;;9.95;59.66
63306;BME280;50735;52.060;1.248;2023-04-23T06:46:47;99861.56;;;9.52;60.19
63306;BME280;50735;52.060;1.248;2023-04-23T06:49:19;99864.91;;;9.59;59.81
63306;BME280;50735;52.060;1.248;2023-04-23T06:51:51;99863.57;;;9.55;59.50
63306;BME280;50735;52.060;1.248;2023-04-23T06:54:23;99858.42;;;9.70;59.50
63306;BME280;50735;52.060;1.248;2023-04-23T06:56:54;99856.07;;;9.77;59.36
63306;BME280;50735;52.060;1.248;2023-04-23T06:59:26;99859.32;;;9.56;59.44
63306;BME280;50735;52.060;1.248;2023-04-23T07:01:58;99867.64;;;9.25;60.32
63306;BME280;50735;52.060;1.248;2023-04-23T07:04:30;99867.55;;;9.24;60.14
63306;BME280;50735;52.060;1.248;2023-04-23T07:07:01;99872.34;;;9.50;59.59
63306;BME280;50735;52.060;1.248;2023-04-23T07:09:33;99870.70;;;9.39;60.13
63306;BME280;50735;52.060;1.248;2023-04-23T07:12:05;99871.03;;;9.52;59.65
63306;BME280;50735;52.060;1.248;2023-04-23T07:14:37;99873.78;;;9.45;60.05
63306;BME280;50735;52.060;1.248;2023-04-23T07:17:09;99872.76;;;9.25;60.23
63306;BME280;50735;52.060;1.248;2023-04-23T07:19:41;99867.75;;;9.67;59.59
63306;BME280;50735;52.060;1.248;2023-04-23T07:22:12;99863.36;;;10.09;59.31
63306;BME280;50735;52.060;1.248;2023-04-23T07:24:44;99862.94;;;10.17;59.39
63306;BME280;50735;52.060;1.248;2023-04-23T07:27:16;99865.40;;;10.28;59.63
63306;BME280;50735;52.060;1.248;2023-04-23T07:29:48;99868.40;;;9.81;60.44
63306;BME280;50735;52.060;1.248;2023-04-23T07:32:20;99866.79;;;9.90;60.12
63306;BME280;50735;52.060;1.248;2023-04-23T07:34:52;99868.25;;;10.08;59.80
63306;BME280;50735;52.060;1.248;2023-04-23T07:37:23;99868.76;;;10.36;59.84
63306;BME280;50735;52.060;1.248;2023-04-23T07:39:55;99863.65;;;10.17;59.81
63306;BME280;50735;52.060;1.248;2023-04-23T07:42:27;99865.69;;;9.68;60.98
63306;BME280;50735;52.060;1.248;2023-04-23T07:44:59;99861.13;;;9.69;60.74
63306;BME280;50735;52.060;1.248;2023-04-23T07:47:31;99863.31;;;10.07;60.57
63306;BME280;50735;52.060;1.248;2023-04-23T07:50:03;99859.14;;;10.28;59.51
63306;BME280;50735;52.060;1.248;2023-04-23T07:52:35;99858.27;;;10.76;59.05
63306;BME280;50735;52.060;1.248;2023-04-23T07:55:08;99855.23;;;11.04;58.58
63306;BME280;50735;52.060;1.248;2023-04-23T07:57:39;99853.85;;;11.10;57.42
63306;BME280;50735;52.060;1.248;2023-04-23T08:00:12;99868.53;;;10.44;56.71
63306;BME280;50735;52.060;1.248;2023-04-23T08:02:44;99858.42;;;10.59;57.00
63306;BME280;50735;52.060;1.248;2023-04-23T08:05:15;99860.41;;;10.48;58.01
63306;BME280;50735;52.060;1.248;2023-04-23T08:07:47;99856.51;;;10.47;57.71
63306;BME280;50735;52.060;1.248;2023-04-23T08:10:19;99867.96;;;10.52;57.60
63306;BME280;50735;52.060;1.248;2023-04-23T08:12:51;99862.66;;;10.62;57.21
63306;BME280;50735;52.060;1.248;2023-04-23T08:15:23;99875.14;;;10.40;57.56
63306;BME280;50735;52.060;1.248;2023-04-23T08:17:55;99868.88;;;10.26;58.06
63306;BME280;50735;52.060;1.248;2023-04-23T08:20:27;99874.44;;;10.19;58.53
63306;BME280;50735;52.060;1.248;2023-04-23T08:22:59;99873.83;;;10.22;58.58
63306;BME280;50735;52.060;1.248;2023-04-23T08:25:31;99876.99;;;10.25;58.91
63306;BME280;50735;52.060;1.248;2023-04-23T08:28:03;99871.07;;;10.38;58.67
63306;BME280;50735;52.060;1.248;2023-04-23T08:30:35;99869.58;;;10.50;59.19
63306;BME280;50735;52.060;1.248;2023-04-23T08:33:06;99874.71;;;10.25;59.26
63306;BME280;50735;52.060;1.248;2023-04-23T08:35:38;99870.69;;;10.55;58.65
63306;BME280;50735;52.060;1.248;2023-04-23T08:38:10;99882.89;;;10.44;59.06
63306;BME280;50735;52.060;1.248;2023-04-23T08:40:42;99874.65;;;10.18;59.75
63306;BME280;50735;52.060;1.248;2023-04-23T08:43:18;99875.92;;;9.96;60.59
63306;BME280;50735;52.060;1.248;2023-04-23T08:45:50;99873.23;;;10.16;60.07
63306;BME280;50735;52.060;1.248;2023-04-23T08:48:23;99878.87;;;10.06;60.00
63306;BME280;50735;52.060;1.248;2023-04-23T08:50:55;99867.80;;;10.35;60.17
63306;BME280;50735;52.060;1.248;2023-04-23T08:53:27;99867.37;;;10.57;59.81
63306;BME280;50735;52.060;1.248;2023-04-23T08:55:59;99862.66;;;10.53;59.39
63306;BME280;50735;52.060;1.248;2023-04-23T08:58:31;99860.13;;;11.08;58.41
63306;BME280;50735;52.060;1.248;2023-04-23T09:01:04;99854.60;;;11.20;57.93
63306;BME280;50735;52.060;1.248;2023-04-23T09:03:38;99855.43;;;10.80;57.83
63306;BME280;50735;52.060;1.248;2023-04-23T09:06:10;99861.70;;;10.90;58.90
63306;BME280;50735;52.060;1.248;2023-04-23T09:08:44;99859.57;;;10.75;59.31
63306;BME280;50735;52.060;1.248;2023-04-23T09:11:16;99865.94;;;10.43;60.76
63306;BME280;50735;52.060;1.248;2023-04-23T09:13:48;99860.75;;;10.42;60.78
63306;BME280;50735;52.060;1.248;2023-04-23T09:16:20;99867.22;;;10.18;62.11
63306;BME280;50735;52.060;1.248;2023-04-23T09:18:52;99859.74;;;10.38;61.35
63306;BME280;50735;52.060;1.248;2023-04-23T09:21:25;99851.34;;;10.52;60.39
63306;BME280;50735;52.060;1.248;2023-04-23T09:23:56;99845.52;;;10.85;60.43
63306;BME280;50735;52.060;1.248;2023-04-23T09:26:28;99846.80;;;11.05;60.04
63306;BME280;50735;52.060;1.248;2023-04-23T09:29:00;99847.11;;;10.70;60.56
63306;BME280;50735;52.060;1.248;2023-04-23T09:31:31;99853.32;;;10.73;59.89
63306;BME280;50735;52.060;1.248;2023-04-23T09:34:03;99847.40;;;10.85;60.52
63306;BME280;50735;52.060;1.248;2023-04-23T09:36:37;99848.29;;;10.62;60.40
63306;BME280;50735;52.060;1.248;2023-04-23T09:39:12;99847.85;;;10.58;60.62
63306;BME280;50735;52.060;1.248;2023-04-23T09:41:44;99843.64;;;10.79;60.31
63306;BME280;50735;52.060;1.248;2023-04-23T09:44:17;99840.78;;;10.74;59.98
63306;BME280;50735;52.060;1.248;2023-04-23T09:46:49;99839.66;;;10.94;59.92
63306;BME280;50735;52.060;1.248;2023-04-23T09:49:20;99839.35;;;11.04;58.50
63306;BME280;50735;52.060;1.248;2023-04-23T09:51:52;99840.80;;;10.89;58.90
63306;BME280;50735;52.060;1.248;2023-04-23T09:54:24;99840.07;;;10.79;58.45
63306;BME280;50735;52.060;1.248;2023-04-23T09:56:58;99835.63;;;10.87;58.09
63306;BME280;50735;52.060;1.248;2023-04-23T09:59:30;99832.17;;;11.06;58.86
63306;BME280;50735;52.060;1.248;2023-04-23T10:02:04;99833.87;;;10.86;58.82
63306;BME280;50735;52.060;1.248;2023-04-23T10:04:37;99828.45;;;10.89;59.30
63306;BME280;50735;52.060;1.248;2023-04-23T10:07:09;99826.96;;;11.11;59.46
63306;BME280;50735;52.060;1.248;2023-04-23T10:09:40;99828.16;;;11.16;58.18
63306;BME280;50735;52.060;1.248;2023-04-23T10:12:13;99828.48;;;11.07;58.77
63306;BME280;50735;52.060;1.248;2023-04-23T10:14:45;99824.48;;;11.09;58.57
63306;BME280;50735;52.060;1.248;2023-04-23T10:17:16;99822.33;;;11.67;59.20
63306;BME280;50735;52.060;1.248;2023-04-23T10:19:49;99814.63;;;12.42;58.75
63306;BME280;50735;52.060;1.248;2023-04-23T10:22:23;99810.09;;;13.26;56.11
63306;BME280;50735;52.060;1.248;2023-04-23T10:25:02;99807.83;;;13.49;54.61
63306;BME280;50735;52.060;1.248;2023-04-23T10:27:37;99802.23;;;13.07;53.46
63306;BME280;50735;52.060;1.248;2023-04-23T10:30:11;99799.91;;;13.08;53.17
63306;BME280;50735;52.060;1.248;2023-04-23T10:32:44;99798.43;;;13.47;53.50
63306;BME280;50735;52.060;1.248;2023-04-23T10:35:16;99794.13;;;13.02;52.99
63306;BME280;50735;52.060;1.248;2023-04-23T10:37:49;99797.73;;;12.55;53.09
63306;BME280;50735;52.060;1.248;2023-04-23T10:40:27;99793.24;;;12.27;54.13
63306;BME280;50735;52.060;1.248;2023-04-23T10:43:00;99796.61;;;12.29;54.54
63306;BME280;50735;52.060;1.248;2023-04-23T10:45:32;99791.00;;;12.14;54.57
63306;BME280;50735;52.060;1.248;2023-04-23T10:48:04;99785.65;;;12.38;54.79
63306;BME280;50735;52.060;1.248;2023-04-23T10:50:36;99781.15;;;12.33;55.72
63306;BME280;50735;52.060;1.248;2023-04-23T10:53:17;99781.29;;;12.13;55.76
63306;BME280;50735;52.060;1.248;2023-04-23T10:55:49;99777.43;;;12.64;55.36
63306;BME280;50735;52.060;1.248;2023-04-23T10:58:21;99775.68;;;12.56;55.60
63306;BME280;50735;52.060;1.248;2023-04-23T11:00:52;99773.00;;;12.67;55.15
63306;BME280;50735;52.060;1.248;2023-04-23T11:03:28;99773.42;;;12.29;55.78
63306;BME280;50735;52.060;1.248;2023-04-23T11:06:01;99775.18;;;11.56;56.64
63306;BME280;50735;52.060;1.248;2023-04-23T11:08:34;99775.39;;;11.00;58.06
63306;BME280;50735;52.060;1.248;2023-04-23T11:11:07;99769.65;;;10.61;58.90
63306;BME280;50735;52.060;1.248;2023-04-23T11:13:50;99765.55;;;10.27;60.17
63306;BME280;50735;52.060;1.248;2023-04-23T11:16:22;99761.67;;;10.37;60.43
63306;BME280;50735;52.060;1.248;2023-04-23T11:19:07;99770.66;;;10.52;60.93
63306;BME280;50735;52.060;1.248;2023-04-23T11:21:59;99756.48;;;10.91;60.35
63306;BME280;50735;52.060;1.248;2023-04-23T11:24:32;99757.32;;;10.41;61.06
63306;BME280;50735;52.060;1.248;2023-04-23T11:27:06;99758.27;;;10.54;60.59
63306;BME280;50735;52.060;1.248;2023-04-23T11:29:39;99750.93;;;10.53;60.88
63306;BME280;50735;52.060;1.248;2023-04-23T11:32:14;99748.42;;;10.96;60.33
63306;BME280;50735;52.060;1.248;2023-04-23T11:34:47;99745.24;;;10.97;59.83
63306;BME280;50735;52.060;1.248;2023-04-23T11:37:19;99748.53;;;10.77;58.64
63306;BME280;50735;52.060;1.248;2023-04-23T11:39:50;99741.11;;;11.30;58.05
63306;BME280;50735;52.060;1.248;2023-04-23T11:42:22;99744.86;;;11.11;57.95
63306;BME280;50735;52.060;1.248;2023-04-23T11:44:54;99739.58;;;11.36;57.93
63306;BME280;50735;52.060;1.248;2023-04-23T11:47:26;99746.51;;;11.30;58.79
63306;BME280;50735;52.060;1.248;2023-04-23T11:50:00;99740.37;;;11.11;59.75
63306;BME280;50735;52.060;1.248;2023-04-23T11:52:32;99742.07;;;11.38;58.65
63306;BME280;50735;52.060;1.248;2023-04-23T11:55:05;99743.27;;;12.04;58.02
63306;BME280;50735;52.060;1.248;2023-04-23T11:57:40;99745.38;;;11.57;58.68
63306;BME280;50735;52.060;1.248;2023-04-23T12:00:15;99747.59;;;11.85;58.31
63306;BME280;50735;52.060;1.248;2023-04-23T12:02:51;99744.87;;;11.57;58.45
63306;BME280;50735;52.060;1.248;2023-04-23T12:05:27;99747.51;;;11.21;59.10
63306;BME280;50735;52.060;1.248;2023-04-23T12:08:08;99743.86;;;11.27;59.13
63306;BME280;50735;52.060;1.248;2023-04-23T12:10:41;99745.30;;;11.13;59.03
63306;BME280;50735;52.060;1.248;2023-04-23T12:13:15;99755.56;;;11.27;58.88
63306;BME280;50735;52.060;1.248;2023-04-23T12:15:48;99746.98;;;10.89;59.26
63306;BME280;50735;52.060;1.248;2023-04-23T12:18:26;99753.18;;;11.33;58.60
63306;BME280;50735;52.060;1.248;2023-04-23T12:21:04;99746.40;;;11.28;59.54
63306;BME280;50735;52.060;1.248;2023-04-23T12:23:37;99744.62;;;11.28;58.20
63306;BME280;50735;52.060;1.248;2023-04-23T12:26:10;99744.06;;;11.42;58.79
63306;BME280;50735;52.060;1.248;2023-04-23T12:28:45;99739.49;;;11.83;57.46
63306;BME280;50735;52.060;1.248;2023-04-23T12:31:19;99738.60;;;11.42;58.54
63306;BME280;50735;52.060;1.248;2023-04-23T12:34:02;99742.95;;;10.98;59.22
63306;BME280;50735;52.060;1.248;2023-04-23T12:36:35;99741.61;;;10.87;59.14
63306;BME280;50735;52.060;1.248;2023-04-23T12:39:25;99739.81;;;10.91;59.37
63306;BME280;50735;52.060;1.248;2023-04-23T12:41:59;99743.61;;;10.74;58.75
63306;BME280;50735;52.060;1.248;2023-04-23T12:44:32;99747.16;;;10.55;59.77
63306;BME280;50735;52.060;1.248;2023-04-23T12:47:05;99743.79;;;10.15;60.27
63306;BME280;50735;52.060;1.248;2023-04-23T12:49:39;99745.53;;;10.44;59.83
63306;BME280;50735;52.060;1.248;2023-04-23T12:52:11;99749.41;;;10.41;59.90
63306;BME280;50735;52.060;1.248;2023-04-23T12:54:43;99753.89;;;10.14;61.49
63306;BME280;50735;52.060;1.248;2023-04-23T12:57:15;99752.51;;;10.30;60.79
63306;BME280;50735;52.060;1.248;2023-04-23T12:59:47;99752.87;;;10.45;58.65
63306;BME280;50735;52.060;1.248;2023-04-23T13:02:19;99752.74;;;10.47;56.91
63306;BME280;50735;52.060;1.248;2023-04-23T13:04:51;99751.68;;;10.50;56.77
63306;BME280;50735;52.060;1.248;2023-04-23T13:07:22;99751.29;;;10.52;55.35
63306;BME280;50735;52.060;1.248;2023-04-23T13:09:54;99750.13;;;10.69;56.12
63306;BME280;50735;52.060;1.248;2023-04-23T13:12:26;99751.76;;;10.77;55.98
63306;BME280;50735;52.060;1.248;2023-04-23T13:14:58;99751.08;;;10.80;55.70
63306;BME280;50735;52.060;1.248;2023-04-23T13:17:30;99747.72;;;10.57;55.94
63306;BME280;50735;52.060;1.248;2023-04-23T13:20:02;99749.02;;;10.62;56.24
63306;BME280;50735;52.060;1.248;2023-04-23T13:22:34;99748.17;;;10.87;56.00
63306;BME280;50735;52.060;1.248;2023-04-23T13:25:07;99743.93;;;10.92;56.13
63306;BME280;50735;52.060;1.248;2023-04-23T13:27:39;99745.19;;;10.92;56.41
63306;BME280;50735;52.060;1.248;2023-04-23T13:30:11;99744.51;;;10.95;56.15
63306;BME280;50735;52.060;1.248;2023-04-23T13:32:43;99744.92;;;10.90;56.76